Time;durP1;ratioP1;P1;durP2;ratioP2;P2;SDS_P1;SDS_P2;PMS_P1;PMS_P2;Temp;Humidity;BMP_temperature;BMP_pressure;BME280_temperature;BME280_humidity;BME280_pressure;Samples;Min_cycle;Max_cycle;Signal;HPM_P1;HPM_P2
2022/05/17 00:01:56;;;;;;;3.87;1.00;;;15.60;99.90;;;;;;5071119;28;20445;-43
2022/05/17 00:04:22;;;;;;;1.67;1.20;;;15.60;99.90;;;;;;5071175;28;20569;-45
2022/05/17 00:06:51;;;;;;;1.20;1.10;;;15.60;99.90;;;;;;5071150;28;20987;-44
2022/05/17 00:09:18;;;;;;;1.27;0.73;;;15.50;99.90;;;;;;5071003;28;20514;-44
2022/05/17 00:11:45;;;;;;;1.30;1.00;;;15.50;99.90;;;;;;5070692;28;20965;-47
2022/05/17 00:14:13;;;;;;;1.83;0.83;;;15.50;99.90;;;;;;5070976;28;20527;-44
2022/05/17 00:16:41;;;;;;;2.60;1.30;;;15.50;99.90;;;;;;5071305;28;20523;-44
2022/05/17 00:19:08;;;;;;;3.77;1.00;;;15.50;99.90;;;;;;5070824;28;20492;-44
2022/05/17 00:21:36;;;;;;;1.10;0.67;;;15.50;99.90;;;;;;5071826;28;20448;-47
2022/05/17 00:24:06;;;;;;;2.90;0.93;;;15.40;99.90;;;;;;5071011;28;20597;-44
2022/05/17 00:26:34;;;;;;;1.27;0.87;;;15.40;99.90;;;;;;5071103;28;20502;-44
2022/05/17 00:29:01;;;;;;;2.13;1.00;;;15.50;99.90;;;;;;5070716;28;20460;-44
2022/05/17 00:31:28;;;;;;;2.00;0.90;;;15.40;99.90;;;;;;5071146;28;20468;-44
2022/05/17 00:33:55;;;;;;;1.10;0.87;;;15.50;99.90;;;;;;5070993;28;20437;-45
2022/05/17 00:36:22;;;;;;;2.87;1.00;;;15.40;99.90;;;;;;5071410;28;20478;-44
2022/05/17 00:38:49;;;;;;;1.70;0.90;;;15.40;99.90;;;;;;5070609;28;20491;-44
2022/05/17 00:41:17;;;;;;;1.40;0.87;;;15.30;99.90;;;;;;5070829;28;20471;-45
2022/05/17 00:46:37;;;;;;;2.13;0.80;;;15.00;99.90;;;;;;5074799;28;20571;-48
2022/05/17 00:49:06;;;;;;;4.20;1.10;;;15.10;99.90;;;;;;5074297;28;20459;-44
2022/05/17 00:51:33;;;;;;;1.10;0.97;;;15.10;99.90;;;;;;5074489;28;20448;-46
2022/05/17 00:54:06;;;;;;;2.93;1.40;;;15.10;99.90;;;;;;5074414;28;20440;-47
2022/05/17 00:56:38;;;;;;;4.77;1.17;;;15.10;99.90;;;;;;5074581;28;20444;-44
2022/05/17 00:59:08;;;;;;;1.80;1.10;;;15.10;99.90;;;;;;5073862;28;20987;-44
2022/05/17 01:01:36;;;;;;;1.43;1.00;;;15.00;99.90;;;;;;5074475;28;20443;-44
2022/05/17 01:04:09;;;;;;;1.53;0.83;;;15.10;99.90;;;;;;5074126;28;20472;-44
2022/05/17 01:06:39;;;;;;;1.50;0.97;;;15.10;99.90;;;;;;5074181;28;20502;-46
2022/05/17 01:09:07;;;;;;;1.70;1.00;;;15.20;99.90;;;;;;5073880;28;20546;-47
2022/05/17 01:11:35;;;;;;;1.40;0.80;;;15.20;99.90;;;;;;5074103;28;20805;-44
2022/05/17 01:16:47;;;;;;;1.37;0.97;;;15.10;99.90;;;;;;5074016;28;21064;-47
2022/05/17 01:19:14;;;;;;;1.77;1.47;;;15.20;99.90;;;;;;5073904;28;20491;-44
2022/05/17 01:21:43;;;;;;;1.97;1.10;;;15.20;99.90;;;;;;5074074;28;20502;-46
2022/05/17 01:24:10;;;;;;;1.40;0.90;;;15.20;99.90;;;;;;5073740;28;20508;-44
2022/05/17 01:26:42;;;;;;;3.87;1.20;;;15.30;99.90;;;;;;5073845;28;20509;-43
2022/05/17 01:29:10;;;;;;;1.77;1.17;;;15.30;99.90;;;;;;5073753;28;20507;-44
2022/05/17 01:31:38;;;;;;;2.70;1.30;;;15.30;99.90;;;;;;5073793;28;20532;-44
2022/05/17 01:34:07;;;;;;;1.30;0.90;;;15.30;99.90;;;;;;5073782;28;20953;-44
2022/05/17 01:36:34;;;;;;;1.80;1.10;;;15.20;99.90;;;;;;5073870;28;20488;-45
2022/05/17 01:39:04;;;;;;;1.90;1.27;;;15.20;99.90;;;;;;5073469;28;20496;-44
2022/05/17 01:41:31;;;;;;;1.40;1.10;;;15.20;99.90;;;;;;5073805;28;20476;-45
2022/05/17 01:43:59;;;;;;;1.50;1.20;;;15.20;99.90;;;;;;5073443;28;20873;-44
2022/05/17 01:46:26;;;;;;;2.17;1.67;;;15.10;99.90;;;;;;5073795;28;20451;-44
2022/05/17 01:48:54;;;;;;;2.67;1.43;;;15.10;99.90;;;;;;5073170;28;20461;-45
2022/05/17 01:51:22;;;;;;;3.80;1.23;;;15.10;99.90;;;;;;5073398;28;20502;-45
2022/05/17 01:53:49;;;;;;;2.33;1.23;;;15.20;99.90;;;;;;5072823;28;20451;-43
2022/05/17 01:56:17;;;;;;;1.90;1.27;;;15.30;99.90;;;;;;5073324;28;20447;-44
2022/05/17 01:58:44;;;;;;;1.90;1.20;;;15.20;99.90;;;;;;5073208;28;20545;-44
2022/05/17 02:01:11;;;;;;;1.57;1.30;;;15.10;99.90;;;;;;5073327;28;20472;-43
2022/05/17 02:03:38;;;;;;;2.10;1.30;;;15.10;99.90;;;;;;5073294;28;20535;-44
2022/05/17 02:06:06;;;;;;;1.90;1.50;;;15.10;99.90;;;;;;5072994;28;20851;-44
2022/05/17 02:08:33;;;;;;;2.17;1.10;;;15.10;99.90;;;;;;5073076;28;20456;-45
2022/05/17 02:11:00;;;;;;;3.60;1.47;;;15.10;99.90;;;;;;5072624;28;20506;-44
2022/05/17 02:13:28;;;;;;;1.57;0.70;;;15.20;99.90;;;;;;5073289;28;20444;-45
2022/05/17 02:15:55;;;;;;;1.20;0.93;;;15.20;99.90;;;;;;5072907;28;20471;-45
2022/05/17 02:18:22;;;;;;;2.90;1.50;;;15.20;99.90;;;;;;5072662;28;20526;-44
2022/05/17 02:20:49;;;;;;;1.63;1.17;;;15.10;99.90;;;;;;5072767;28;20468;-45
2022/05/17 02:23:16;;;;;;;1.83;0.87;;;15.20;99.90;;;;;;5073073;28;20468;-44
2022/05/17 02:25:43;;;;;;;3.60;1.30;;;15.30;99.90;;;;;;5072511;28;20512;-46
2022/05/17 02:28:11;;;;;;;1.90;0.90;;;15.20;99.90;;;;;;5072693;28;20495;-44
2022/05/17 02:30:41;;;;;;;1.53;1.30;;;15.20;99.90;;;;;;5072297;28;20443;-46
2022/05/17 02:33:08;;;;;;;3.03;1.17;;;15.20;99.90;;;;;;5072800;28;20803;-44
2022/05/17 02:35:35;;;;;;;1.70;1.30;;;15.20;99.90;;;;;;5072690;28;20498;-44
2022/05/17 02:38:02;;;;;;;1.80;0.97;;;15.20;99.90;;;;;;5072511;28;20460;-45
2022/05/17 02:40:29;;;;;;;3.67;0.90;;;15.20;99.90;;;;;;5072095;28;20532;-44
2022/05/17 02:42:56;;;;;;;1.70;1.50;;;15.30;99.90;;;;;;5072386;28;20440;-48
2022/05/17 02:45:23;;;;;;;1.83;1.23;;;15.20;99.90;;;;;;5072285;28;20563;-43
2022/05/17 02:47:52;;;;;;;2.50;1.07;;;15.10;99.90;;;;;;5072180;28;21008;-44
2022/05/17 02:50:19;;;;;;;1.83;1.43;;;15.10;99.90;;;;;;5072040;28;20445;-46
2022/05/17 02:52:46;;;;;;;1.77;1.20;;;15.20;99.90;;;;;;5072240;28;20502;-44
2022/05/17 02:55:14;;;;;;;6.10;1.13;;;15.20;99.90;;;;;;5072266;28;20509;-47
2022/05/17 02:57:41;;;;;;;1.97;0.90;;;15.20;99.90;;;;;;5071941;28;20448;-44
2022/05/17 03:00:11;;;;;;;1.73;1.23;;;15.20;99.90;;;;;;5071800;28;20472;-44
2022/05/17 03:02:38;;;;;;;1.30;1.10;;;15.20;99.90;;;;;;5072273;28;20464;-45
2022/05/17 03:05:09;;;;;;;2.33;1.60;;;15.20;99.90;;;;;;5071335;28;20905;-44
2022/05/17 03:07:36;;;;;;;3.93;1.20;;;15.10;99.90;;;;;;5071951;28;20455;-45
2022/05/17 03:10:04;;;;;;;2.60;1.43;;;15.20;99.90;;;;;;5071506;28;20440;-43
2022/05/17 03:12:31;;;;;;;2.33;1.50;;;15.10;99.90;;;;;;5072120;28;20444;-45
2022/05/17 03:14:59;;;;;;;2.40;1.50;;;15.10;99.90;;;;;;5071825;28;20476;-44
2022/05/17 03:17:27;;;;;;;1.70;1.60;;;15.10;99.90;;;;;;5071814;28;20444;-47
2022/05/17 03:19:54;;;;;;;2.03;1.77;;;15.20;99.90;;;;;;5071492;28;20893;-45
2022/05/17 03:22:23;;;;;;;2.87;1.27;;;15.10;99.90;;;;;;5071726;28;20875;-45
2022/05/17 03:24:50;;;;;;;1.70;1.60;;;15.20;99.90;;;;;;5071491;28;20472;-44
2022/05/17 03:27:19;;;;;;;1.53;1.33;;;15.20;99.90;;;;;;5071598;28;20433;-47
2022/05/17 03:29:46;;;;;;;2.30;1.73;;;15.20;99.90;;;;;;5071239;28;20510;-44
2022/05/17 03:32:13;;;;;;;2.00;1.23;;;15.10;99.90;;;;;;5071685;28;20441;-44
2022/05/17 03:34:40;;;;;;;2.27;1.97;;;15.20;99.90;;;;;;5071399;28;20870;-45
2022/05/17 03:37:07;;;;;;;1.73;1.33;;;15.20;99.90;;;;;;5071431;28;20440;-44
2022/05/17 03:39:35;;;;;;;1.30;0.83;;;15.10;99.90;;;;;;5071460;28;20461;-46
2022/05/17 03:42:02;;;;;;;1.50;1.20;;;15.10;99.90;;;;;;5071646;28;20468;-44
2022/05/17 03:44:29;;;;;;;1.37;1.10;;;15.10;99.90;;;;;;5071457;28;20444;-43
2022/05/17 03:46:56;;;;;;;2.77;1.23;;;15.10;99.90;;;;;;5071213;28;20572;-45
2022/05/17 03:49:23;;;;;;;2.60;1.10;;;15.10;99.90;;;;;;5070854;28;20496;-44
2022/05/17 03:51:50;;;;;;;2.20;1.50;;;15.00;99.90;;;;;;5071341;28;20525;-45
2022/05/17 03:54:21;;;;;;;1.60;1.37;;;15.10;99.90;;;;;;5071370;28;20449;-45
2022/05/17 03:56:50;;;;;;;2.70;1.10;;;15.10;99.90;;;;;;5071391;28;20819;-44
2022/05/17 03:59:17;;;;;;;1.30;1.07;;;15.10;99.90;;;;;;5070856;28;20494;-45
2022/05/17 04:01:45;;;;;;;1.80;1.30;;;15.10;99.90;;;;;;5071200;28;20472;-44
2022/05/17 04:04:12;;;;;;;1.73;1.30;;;15.20;99.90;;;;;;5070989;28;20821;-43
2022/05/17 04:06:39;;;;;;;1.40;0.90;;;15.20;99.90;;;;;;5071322;28;20504;-44
2022/05/17 04:09:06;;;;;;;1.63;1.10;;;15.20;99.90;;;;;;5071245;28;20459;-44
2022/05/17 04:11:34;;;;;;;1.47;1.20;;;15.20;99.90;;;;;;5071239;28;20468;-44
2022/05/17 04:14:03;;;;;;;1.30;0.93;;;15.20;99.90;;;;;;5070898;28;20475;-44
2022/05/17 04:16:32;;;;;;;2.27;1.50;;;15.20;99.90;;;;;;5071339;28;20917;-43
2022/05/17 04:18:59;;;;;;;1.70;1.23;;;15.20;99.90;;;;;;5074862;28;20464;-44
2022/05/17 04:21:26;;;;;;;3.00;1.97;;;15.10;99.90;;;;;;5075359;28;20440;-44
2022/05/17 04:23:54;;;;;;;6.53;1.40;;;15.20;99.90;;;;;;5075009;28;20444;-43
2022/05/17 04:26:21;;;;;;;2.40;1.50;;;15.00;99.90;;;;;;5074855;28;20559;-47
2022/05/17 04:28:48;;;;;;;3.60;1.10;;;15.00;99.90;;;;;;5074480;28;20523;-46
2022/05/17 04:31:16;;;;;;;2.40;1.37;;;15.00;99.90;;;;;;5074822;28;20880;-43
2022/05/17 04:33:43;;;;;;;1.80;1.50;;;15.10;99.90;;;;;;5074910;28;20801;-45
2022/05/17 04:36:10;;;;;;;2.23;1.50;;;15.10;99.90;;;;;;5075102;28;20485;-44
2022/05/17 04:38:38;;;;;;;3.70;1.60;;;15.00;99.90;;;;;;5074432;28;20513;-48
2022/05/17 04:41:05;;;;;;;3.77;1.50;;;14.90;99.90;;;;;;5074519;28;20484;-44
2022/05/17 04:43:32;;;;;;;1.80;1.30;;;15.00;99.90;;;;;;5074955;28;20444;-44
2022/05/17 04:45:59;;;;;;;1.53;1.43;;;15.00;99.90;;;;;;5074729;28;20525;-44
2022/05/17 04:48:29;;;;;;;1.70;1.20;;;15.10;99.90;;;;;;5074544;28;20488;-44
2022/05/17 04:50:56;;;;;;;2.33;1.73;;;15.10;99.90;;;;;;5074309;28;20452;-43
2022/05/17 04:53:23;;;;;;;1.97;1.33;;;15.10;99.90;;;;;;5074447;28;20853;-44
2022/05/17 04:55:50;;;;;;;1.40;1.17;;;15.10;99.90;;;;;;5074299;28;20436;-44
2022/05/17 04:58:17;;;;;;;3.53;1.20;;;15.10;99.90;;;;;;5074440;28;20508;-44
2022/05/17 05:00:44;;;;;;;2.17;1.47;;;15.10;99.90;;;;;;5074257;28;20472;-44
2022/05/17 05:03:11;;;;;;;1.40;1.10;;;15.10;99.90;;;;;;5074264;28;20536;-47
2022/05/17 05:05:39;;;;;;;2.60;1.20;;;15.10;99.90;;;;;;5074183;28;20555;-43
2022/05/17 05:08:06;;;;;;;1.90;1.47;;;15.10;99.90;;;;;;5073939;28;20456;-43
2022/05/17 05:10:34;;;;;;;2.60;1.87;;;15.20;99.90;;;;;;5073933;28;20548;-45
2022/05/17 05:13:00;;;;;;;1.90;1.60;;;15.20;99.90;;;;;;5074175;28;20513;-44
2022/05/17 05:15:27;;;;;;;2.13;1.67;;;15.20;99.90;;;;;;5074141;28;20532;-47
2022/05/17 05:17:54;;;;;;;3.50;2.57;;;14.90;99.90;;;;;;5073899;28;20464;-45
2022/05/17 05:20:22;;;;;;;4.73;3.20;;;14.90;99.90;;;;;;5073629;28;20953;-43
2022/05/17 05:22:50;;;;;;;4.63;3.70;;;14.90;99.90;;;;;;5074161;28;20531;-46
2022/05/17 05:25:17;;;;;;;4.03;3.40;;;14.90;99.90;;;;;;5074106;28;20494;-44
2022/05/17 05:27:44;;;;;;;5.53;4.03;;;14.90;99.90;;;;;;5074012;28;20444;-43
2022/05/17 05:30:13;;;;;;;3.87;3.10;;;14.90;99.90;;;;;;5072870;28;20494;-45
2022/05/17 05:32:40;;;;;;;3.50;2.77;;;15.10;99.90;;;;;;5073733;28;20468;-43
2022/05/17 05:35:08;;;;;;;3.77;2.87;;;15.20;99.90;;;;;;5073686;28;20531;-45
2022/05/17 05:37:35;;;;;;;4.30;3.23;;;15.30;99.90;;;;;;5073983;28;20494;-43
2022/05/17 05:40:04;;;;;;;3.10;2.70;;;15.40;99.90;;;;;;5073575;28;20506;-44
2022/05/17 05:42:30;;;;;;;4.23;1.80;;;15.40;99.90;;;;;;5073658;28;20480;-44
2022/05/17 05:44:57;;;;;;;2.77;2.00;;;15.40;99.90;;;;;;5073613;28;20998;-47
2022/05/17 05:47:24;;;;;;;4.90;2.07;;;15.40;99.90;;;;;;5073954;28;20589;-45
2022/05/17 05:49:51;;;;;;;1.90;1.50;;;15.40;99.90;;;;;;5073145;28;21053;-43
2022/05/17 05:52:19;;;;;;;4.10;2.73;;;15.40;99.90;;;;;;5073488;28;20475;-45
2022/05/17 05:54:46;;;;;;;3.57;3.13;;;15.50;99.90;;;;;;5073465;28;20951;-44
2022/05/17 05:57:14;;;;;;;4.03;3.63;;;15.30;99.90;;;;;;5073265;28;20976;-45
2022/05/17 05:59:41;;;;;;;6.23;3.90;;;15.20;99.90;;;;;;5118600;22;20525;-45
2022/05/17 06:02:09;;;;;;;4.37;3.43;;;15.20;99.90;;;;;;5053156;28;20815;-45
2022/05/17 06:04:36;;;;;;;5.33;3.70;;;15.20;99.90;;;;;;5053007;28;20476;-45
2022/05/17 06:07:04;;;;;;;5.90;3.67;;;15.20;99.90;;;;;;5052997;28;20481;-42
2022/05/17 06:09:32;;;;;;;3.87;3.57;;;15.40;99.90;;;;;;5052894;28;20466;-43
2022/05/17 06:11:58;;;;;;;3.40;3.00;;;15.50;99.90;;;;;;5052818;28;20966;-42
2022/05/17 06:14:27;;;;;;;4.90;3.50;;;15.50;99.90;;;;;;5053222;28;20479;-44
2022/05/17 06:16:55;;;;;;;5.00;2.87;;;15.60;99.90;;;;;;5053096;28;20448;-43
2022/05/17 06:19:22;;;;;;;3.60;3.30;;;15.60;99.90;;;;;;5052668;28;20465;-46
2022/05/17 06:21:49;;;;;;;4.40;3.73;;;15.30;99.90;;;;;;5052788;28;20860;-45
2022/05/17 06:24:17;;;;;;;4.90;3.77;;;15.10;99.90;;;;;;5052553;28;20829;-43
2022/05/17 06:26:44;;;;;;;3.57;3.27;;;15.10;99.90;;;;;;5052601;28;20484;-46
2022/05/17 06:29:11;;;;;;;7.87;3.80;;;15.30;99.90;;;;;;5052425;28;20557;-43
2022/05/17 06:31:39;;;;;;;4.87;4.20;;;15.40;99.90;;;;;;5051475;28;20981;-47
2022/05/17 06:34:06;;;;;;;4.00;3.43;;;15.50;99.90;;;;;;5052420;28;20441;-45
2022/05/17 06:36:33;;;;;;;3.10;2.80;;;15.60;99.90;;;;;;5052507;28;20504;-42
2022/05/17 06:39:01;;;;;;;4.77;3.90;;;15.70;99.90;;;;;;5052292;28;20462;-41
2022/05/17 06:41:28;;;;;;;4.70;4.23;;;15.60;99.90;;;;;;5052649;28;20469;-42
2022/05/17 06:43:54;;;;;;;4.23;3.10;;;15.50;99.90;;;;;;5052327;28;20969;-42
2022/05/17 06:46:21;;;;;;;3.50;2.87;;;15.60;99.90;;;;;;5052492;28;20516;-44
2022/05/17 06:48:50;;;;;;;3.73;3.30;;;15.70;99.90;;;;;;5052594;28;20544;-43
2022/05/17 06:51:16;;;;;;;4.83;4.10;;;15.90;99.90;;;;;;5052622;28;20477;-43
2022/05/17 06:53:43;;;;;;;5.40;4.90;;;15.90;99.90;;;;;;5051999;28;20442;-43
2022/05/17 06:56:11;;;;;;;3.80;3.37;;;16.00;99.90;;;;;;5052407;28;20495;-43
2022/05/17 06:58:38;;;;;;;4.60;4.20;;;15.90;99.90;;;;;;5052021;28;20523;-45
2022/05/17 07:01:05;;;;;;;3.93;2.87;;;16.00;99.90;;;;;;5052255;28;20495;-43
2022/05/17 07:03:32;;;;;;;3.63;2.67;;;16.10;99.90;;;;;;5052052;28;20996;-43
2022/05/17 07:06:01;;;;;;;4.67;2.53;;;16.20;99.90;;;;;;5051726;28;20560;-43
2022/05/17 07:08:28;;;;;;;3.50;2.80;;;16.30;99.90;;;;;;5052295;28;20470;-43
2022/05/17 07:13:39;;;;;;;2.47;2.20;;;16.40;99.90;;;;;;5052204;28;20910;-45
2022/05/17 07:16:06;;;;;;;4.37;2.63;;;16.50;99.90;;;;;;5051824;28;20520;-42
2022/05/17 07:18:33;;;;;;;2.33;2.13;;;16.60;99.90;;;;;;5051672;28;21045;-43
2022/05/17 07:21:01;;;;;;;2.50;1.93;;;16.70;99.90;;;;;;5051660;28;20441;-43
2022/05/17 07:23:28;;;;;;;3.30;2.10;;;16.80;99.90;;;;;;5051768;28;20441;-43
2022/05/17 07:25:55;;;;;;;4.10;2.40;;;16.90;99.90;;;;;;5051486;28;20437;-43
2022/05/17 07:28:24;;;;;;;2.40;2.07;;;16.90;99.90;;;;;;5051500;28;20455;-43
2022/05/17 07:30:52;;;;;;;2.57;2.07;;;17.10;99.90;;;;;;5051627;28;20473;-42
2022/05/17 07:33:20;;;;;;;2.10;1.57;;;17.30;99.90;;;;;;5051557;28;20806;-43
2022/05/17 07:35:48;;;;;;;3.60;2.03;;;17.60;99.90;;;;;;5051556;28;20518;-43
2022/05/17 07:38:18;;;;;;;4.17;1.77;;;18.00;99.90;;;;;;5051627;28;20488;-42
2022/05/17 07:40:45;;;;;;;3.13;1.90;;;18.30;99.90;;;;;;5051305;28;20441;-44
2022/05/17 07:43:12;;;;;;;4.13;1.70;;;18.60;99.90;;;;;;5051460;28;20572;-43
2022/05/17 07:45:39;;;;;;;2.03;1.63;;;18.70;99.90;;;;;;5051613;28;20460;-45
2022/05/17 07:48:06;;;;;;;2.10;1.90;;;18.50;99.90;;;;;;5051119;28;20512;-43
2022/05/17 07:50:34;;;;;;;2.80;1.97;;;18.70;99.90;;;;;;5051109;28;20444;-43
2022/05/17 07:53:07;;;;;;;3.43;2.30;;;18.90;99.90;;;;;;5051034;28;20524;-47
2022/05/17 07:55:36;;;;;;;2.87;1.80;;;19.20;99.90;;;;;;5051341;28;20443;-43
2022/05/17 07:58:04;;;;;;;4.43;2.87;;;19.20;99.90;;;;;;5050978;28;20441;-47
2022/05/17 08:00:31;;;;;;;2.73;1.80;;;19.40;99.90;;;;;;5050986;28;20870;-43
2022/05/17 08:02:58;;;;;;;3.77;1.73;;;18.80;99.90;;;;;;5051062;28;20859;-42
2022/05/17 08:05:26;;;;;;;4.90;2.10;;;18.70;99.90;;;;;;5051085;28;20945;-43
2022/05/17 08:07:53;;;;;;;3.90;2.63;;;18.60;99.90;;;;;;5050900;28;20491;-43
2022/05/17 08:10:20;;;;;;;2.23;1.90;;;18.80;99.90;;;;;;5050507;28;20826;-42
2022/05/17 08:12:49;;;;;;;2.13;1.40;;;19.00;99.90;;;;;;5051317;28;20441;-43
2022/05/17 08:15:16;;;;;;;1.63;1.33;;;18.80;99.90;;;;;;5051105;28;20532;-42
2022/05/17 08:17:43;;;;;;;2.37;1.43;;;19.00;99.90;;;;;;5051210;28;20474;-43
2022/05/17 08:20:11;;;;;;;2.00;1.27;;;18.90;99.90;;;;;;5050816;28;20565;-42
2022/05/17 08:22:39;;;;;;;2.00;1.70;;;19.10;99.90;;;;;;5051196;28;20472;-43
2022/05/17 08:27:54;;;;;;;3.00;1.43;;;19.00;99.90;;;;;;5051117;28;21095;-43
2022/05/17 08:30:23;;;;;;;1.90;1.20;;;18.90;99.90;;;;;;5050603;28;20460;-41
2022/05/17 08:35:38;;;;;;;1.50;1.40;;;19.00;99.90;;;;;;5051184;28;20555;-43
2022/05/17 08:38:05;;;;;;;2.33;1.50;;;19.00;99.90;;;;;;5050886;28;20461;-45
2022/05/17 08:40:37;;;;;;;1.40;1.20;;;18.90;99.90;;;;;;5050789;28;20989;-43
2022/05/17 08:43:16;;;;;;;6.10;1.97;;;19.00;99.90;;;;;;5050590;28;20901;-44
2022/05/17 08:45:56;;;;;;;1.77;1.17;;;19.10;99.90;;;;;;5051034;28;20544;-43
2022/05/17 08:48:25;;;;;;;1.70;1.30;;;19.10;99.90;;;;;;5050727;28;20564;-47
2022/05/17 08:50:52;;;;;;;1.20;1.00;;;19.20;99.90;;;;;;5050796;28;20498;-43
2022/05/17 08:53:20;;;;;;;1.27;0.97;;;19.10;99.90;;;;;;5050717;28;20823;-45
2022/05/17 08:55:51;;;;;;;1.80;1.43;;;19.30;99.90;;;;;;5050612;28;20437;-47
2022/05/17 08:58:22;;;;;;;1.43;1.20;;;19.20;99.90;;;;;;5050503;28;20815;-44
2022/05/17 09:00:53;;;;;;;4.57;2.20;;;19.10;99.90;;;;;;5050510;28;20437;-47
2022/05/17 09:03:40;;;;;;;3.13;2.17;;;19.10;99.90;;;;;;5050830;28;20491;-42
2022/05/17 09:06:15;;;;;;;3.97;2.20;;;19.30;99.90;;;;;;5054017;28;20437;-42
2022/05/17 09:08:54;;;;;;;2.40;1.73;;;19.50;99.90;;;;;;5054611;28;20536;-43
2022/05/17 09:11:24;;;;;;;2.80;2.10;;;19.50;99.90;;;;;;5053885;28;20441;-43
2022/05/17 09:14:00;;;;;;;2.23;2.03;;;19.60;99.90;;;;;;5054343;28;20941;-42
2022/05/17 09:16:32;;;;;;;2.77;1.90;;;19.80;99.90;;;;;;5054036;28;20803;-43
2022/05/17 09:18:59;;;;;;;2.13;1.47;;;19.90;99.90;;;;;;5053406;28;20540;-42
2022/05/17 09:21:32;;;;;;;4.33;2.20;;;19.90;99.90;;;;;;5050884;28;20513;-42
2022/05/17 09:24:02;;;;;;;2.83;2.23;;;20.00;99.90;;;;;;5053628;28;20473;-49
2022/05/17 09:26:30;;;;;;;1.60;1.40;;;19.90;99.90;;;;;;5053246;28;21000;-43
2022/05/17 09:29:05;;;;;;;3.20;2.07;;;19.90;99.90;;;;;;5053560;28;20530;-43
2022/05/17 09:31:34;;;;;;;2.20;1.70;;;20.00;99.90;;;;;;5052958;28;20441;-46
2022/05/17 09:34:03;;;;;;;3.10;2.20;;;20.00;99.90;;;;;;5053413;28;20445;-41
2022/05/17 09:36:34;;;;;;;3.53;2.00;;;20.20;99.90;;;;;;5053265;28;20448;-42
2022/05/17 09:39:02;;;;;;;2.33;1.57;;;20.20;99.90;;;;;;5052357;28;20891;-44
2022/05/17 09:41:34;;;;;;;2.37;1.90;;;20.30;99.90;;;;;;5052178;28;20481;-42
2022/05/17 09:44:05;;;;;;;2.20;1.80;;;20.40;99.90;;;;;;5053487;28;20929;-42
2022/05/17 09:46:35;;;;;;;2.17;1.93;;;20.50;99.90;;;;;;5053549;28;20476;-43
2022/05/17 09:54:44;;;;;;;2.80;1.80;;;20.60;99.90;;;;;;5052061;28;20511;-43
2022/05/17 09:57:13;;;;;;;1.90;1.80;;;20.70;99.90;;;;;;5052282;28;20468;-45
2022/05/17 09:59:42;;;;;;;3.10;1.77;;;20.70;99.90;;;;;;5052889;28;20504;-42
2022/05/17 10:02:39;;;;;;;2.47;1.50;;;20.60;99.90;;;;;;5053040;28;20437;-42
2022/05/17 10:05:20;;;;;;;2.27;2.00;;;20.80;99.90;;;;;;5053556;28;20445;-43
2022/05/17 10:07:56;;;;;;;2.03;1.83;;;20.90;99.90;;;;;;5052926;28;20483;-43
2022/05/17 10:10:29;;;;;;;2.87;2.17;;;21.00;99.90;;;;;;5052161;28;20837;-43
2022/05/17 10:13:01;;;;;;;2.63;1.70;;;21.10;99.90;;;;;;5053108;28;20968;-46
2022/05/17 10:15:32;;;;;;;3.30;2.13;;;21.10;99.90;;;;;;5052646;28;20507;-47
2022/05/17 10:18:02;;;;;;;5.60;3.00;;;21.10;99.90;;;;;;5052921;28;20937;-43
2022/05/17 10:20:35;;;;;;;3.30;2.27;;;21.10;99.90;;;;;;5052982;28;20504;-43
2022/05/17 10:23:06;;;;;;;3.20;2.37;;;21.10;99.90;;;;;;5052865;28;20453;-43
2022/05/17 10:25:41;;;;;;;4.03;2.17;;;21.20;99.90;;;;;;5052827;28;20441;-44
2022/05/17 10:28:16;;;;;;;3.40;2.43;;;21.30;99.90;;;;;;5052666;28;20484;-43
2022/05/17 10:30:49;;;;;;;4.07;2.17;;;21.30;99.90;;;;;;5052197;28;20510;-43
2022/05/17 10:33:20;;;;;;;3.73;1.87;;;21.40;99.90;;;;;;5052398;28;20860;-43
2022/05/17 10:35:50;;;;;;;3.70;1.90;;;21.50;99.90;;;;;;5052800;28;20465;-43
2022/05/17 10:38:20;;;;;;;3.03;1.80;;;21.60;99.90;;;;;;5052276;28;20822;-42
2022/05/17 10:40:49;;;;;;;2.80;2.03;;;21.60;99.90;;;;;;5052076;28;20477;-42
2022/05/17 10:43:19;;;;;;;4.60;2.63;;;21.70;99.90;;;;;;5052377;28;20469;-43
2022/05/17 10:46:00;;;;;;;5.13;2.40;;;21.80;99.90;;;;;;5052376;28;20438;-47
2022/05/17 10:48:39;;;;;;;2.50;1.93;;;21.80;99.90;;;;;;5051853;28;20592;-43
2022/05/17 10:51:15;;;;;;;2.33;1.83;;;21.80;99.90;;;;;;5052037;28;20441;-48
2022/05/17 10:53:54;;;;;;;2.03;1.80;;;21.90;99.90;;;;;;5052013;28;20491;-45
2022/05/17 10:56:31;;;;;;;3.67;2.10;;;21.90;99.90;;;;;;5051353;28;20502;-43
2022/05/17 10:59:05;;;;;;;3.00;2.10;;;22.00;99.90;;;;;;5051717;28;20469;-43
2022/05/17 11:01:42;;;;;;;2.30;1.73;;;22.00;99.90;;;;;;5051997;28;20988;-43
2022/05/17 11:04:57;;;;;;;2.63;1.90;;;22.00;99.90;;;;;;5052308;28;20519;-42
2022/05/17 11:07:34;;;;;;;2.80;2.00;;;21.80;99.90;;;;;;5051835;28;20477;-43
2022/05/17 11:10:15;;;;;;;2.20;1.73;;;21.60;99.90;;;;;;5051060;28;20511;-48
2022/05/17 11:12:49;;;;;;;2.80;2.37;;;21.50;99.90;;;;;;5052006;28;20528;-46
2022/05/17 11:15:21;;;;;;;2.53;1.70;;;21.20;99.90;;;;;;5051310;28;20444;-41
2022/05/17 11:17:54;;;;;;;2.57;1.90;;;21.00;99.90;;;;;;5051125;28;20870;-42
2022/05/17 11:20:27;;;;;;;4.53;2.40;;;20.90;99.90;;;;;;5050976;28;20465;-42
2022/05/17 11:23:20;;;;;;;4.03;2.20;;;20.90;99.90;;;;;;5051773;28;20870;-42
2022/05/17 11:26:05;;;;;;;2.20;2.00;;;21.20;99.90;;;;;;5051345;28;20938;-44
2022/05/17 11:29:08;;;;;;;2.40;1.70;;;21.30;99.90;;;;;;5051069;28;20841;-46
2022/05/17 11:31:47;;;;;;;2.90;1.90;;;21.60;99.90;;;;;;5052026;28;20766;-42
2022/05/17 11:34:33;;;;;;;3.33;2.50;;;21.60;99.90;;;;;;5051702;28;20468;-43
2022/05/17 11:37:03;;;;;;;1.80;1.53;;;21.60;99.90;;;;;;5051311;28;20520;-42
2022/05/17 11:39:50;;;;;;;2.50;2.03;;;21.40;99.90;;;;;;5051254;28;20539;-42
2022/05/17 11:42:29;;;;;;;5.23;2.40;;;21.30;99.90;;;;;;5051386;28;20445;-42
2022/05/17 11:44:57;;;;;;;2.20;1.87;;;21.30;99.90;;;;;;5051115;28;20452;-43
2022/05/17 11:47:31;;;;;;;4.63;2.63;;;21.20;99.90;;;;;;5050922;28;20473;-42
2022/05/17 11:50:24;;;;;;;3.60;2.50;;;21.20;99.90;;;;;;5050780;28;20472;-47
2022/05/17 11:52:56;;;;;;;2.13;1.77;;;21.10;99.90;;;;;;5051053;28;20544;-43
2022/05/17 11:55:29;;;;;;;3.10;1.80;;;21.10;99.90;;;;;;5051793;28;20484;-42
2022/05/17 11:57:59;;;;;;;3.20;2.23;;;21.20;99.90;;;;;;5049335;28;20441;-42
2022/05/17 12:00:51;;;;;;;3.20;2.00;;;21.10;99.90;;;;;;5135504;22;20487;-43
2022/05/17 12:03:54;;;;;;;2.90;1.57;;;21.10;99.90;;;;;;5087619;28;20473;-43
2022/05/17 12:06:36;;;;;;;3.03;1.87;;;21.10;99.90;;;;;;5091406;28;20467;-43
2022/05/17 12:09:07;;;;;;;2.97;2.10;;;21.20;99.90;;;;;;5095279;28;21049;-43
2022/05/17 12:11:47;;;;;;;3.00;2.17;;;21.30;99.90;;;;;;5111233;28;20439;-43
2022/05/17 12:14:21;;;;;;;2.60;2.10;;;21.30;99.90;;;;;;5109839;28;20950;-43
2022/05/17 12:16:50;;;;;;;2.83;2.30;;;21.30;99.90;;;;;;5111632;28;21067;-43
2022/05/17 12:19:24;;;;;;;2.37;2.03;;;21.30;99.90;;;;;;5111306;28;20486;-43
2022/05/17 12:21:58;;;;;;;4.53;2.20;;;21.30;99.90;;;;;;5111355;28;20502;-43
2022/05/17 12:24:34;;;;;;;4.10;2.27;;;21.30;99.90;;;;;;5111210;28;20855;-44
2022/05/17 12:27:16;;;;;;;3.40;2.10;;;21.30;99.90;;;;;;5111437;28;20481;-43
2022/05/17 12:32:29;;;;;;;2.30;1.83;;;21.50;99.90;;;;;;5076983;28;20423;-43
2022/05/17 12:34:57;;;;;;;3.17;1.93;;;21.80;99.90;;;;;;5110377;28;20431;-43
2022/05/17 12:37:28;;;;;;;2.90;2.20;;;22.00;99.90;;;;;;5111990;28;20446;-43
2022/05/17 12:45:28;;;;;;;5.27;1.80;;;22.10;99.90;;;;;;5115354;28;20488;-43
2022/05/17 12:47:57;;;;;;;2.73;1.80;;;21.80;99.90;;;;;;5114901;28;20523;-44
2022/05/17 12:50:38;;;;;;;2.50;1.93;;;21.70;99.90;;;;;;5115060;28;20546;-43
2022/05/17 12:53:13;;;;;;;3.30;1.70;;;21.60;99.90;;;;;;5115180;28;20474;-44
2022/05/17 12:55:42;;;;;;;3.00;2.00;;;21.50;99.90;;;;;;5115061;28;20487;-43
2022/05/17 12:58:11;;;;;;;3.13;1.60;;;21.50;99.90;;;;;;5114899;28;20800;-43
2022/05/17 13:00:39;;;;;;;2.80;1.97;;;21.40;99.90;;;;;;5114513;28;20510;-43
2022/05/17 13:03:16;;;;;;;4.03;1.93;;;21.30;99.90;;;;;;5114959;28;20442;-43
2022/05/17 13:05:48;;;;;;;3.00;1.90;;;21.30;99.90;;;;;;5114031;28;20442;-43
2022/05/17 13:08:21;;;;;;;2.70;1.70;;;21.50;99.90;;;;;;5113181;28;20852;-43
2022/05/17 13:10:59;;;;;;;3.17;1.80;;;21.70;99.90;;;;;;5112577;28;20553;-43
2022/05/17 13:13:28;;;;;;;5.77;1.90;;;21.80;99.90;;;;;;5113653;28;20983;-43
2022/05/17 13:15:58;;;;;;;2.70;1.83;;;22.00;99.90;;;;;;5113219;28;20438;-43
2022/05/17 13:18:37;;;;;;;3.20;2.07;;;22.10;99.90;;;;;;5112851;28;21073;-43
2022/05/17 13:21:05;;;;;;;4.00;2.20;;;22.20;99.90;;;;;;5112461;28;20442;-43
2022/05/17 13:23:33;;;;;;;5.17;1.77;;;22.20;99.90;;;;;;5114469;28;21010;-43
2022/05/17 13:26:03;;;;;;;2.70;1.83;;;22.30;99.90;;;;;;5114415;28;20934;-43
2022/05/17 13:28:32;;;;;;;3.23;2.20;;;22.20;99.90;;;;;;5114568;28;20557;-43
2022/05/17 13:31:06;;;;;;;2.40;1.33;;;22.30;99.90;;;;;;5114009;28;20495;-43